sensor_id;sensor_type;location;lat;lon;timestamp;P1;durP1;ratioP1;P2;durP2;ratioP2
29788;SDS011;64899;42.660;23.268;2022-11-20T00:02:20;4.90;;;1.35;;
29788;SDS011;64899;42.660;23.268;2022-11-20T00:04:45;2.70;;;1.10;;
29788;SDS011;64899;42.660;23.268;2022-11-20T00:07:10;5.35;;;1.20;;
29788;SDS011;64899;42.660;23.268;2022-11-20T00:09:36;4.93;;;1.27;;
29788;SDS011;64899;42.660;23.268;2022-11-20T00:12:01;2.03;;;1.15;;
29788;SDS011;64899;42.660;23.268;2022-11-20T00:14:27;6.53;;;1.40;;
29788;SDS011;64899;42.660;23.268;2022-11-20T00:16:53;5.40;;;1.23;;
29788;SDS011;64899;42.660;23.268;2022-11-20T00:19:18;6.63;;;1.90;;
29788;SDS011;64899;42.660;23.268;2022-11-20T00:21:44;4.03;;;1.52;;
29788;SDS011;64899;42.660;23.268;2022-11-20T00:24:09;6.32;;;1.20;;
29788;SDS011;64899;42.660;23.268;2022-11-20T00:26:35;3.85;;;1.17;;
29788;SDS011;64899;42.660;23.268;2022-11-20T00:29:01;4.93;;;1.65;;
29788;SDS011;64899;42.660;23.268;2022-11-20T00:31:27;6.07;;;1.92;;
29788;SDS011;64899;42.660;23.268;2022-11-20T00:33:53;3.40;;;1.10;;
29788;SDS011;64899;42.660;23.268;2022-11-20T00:36:19;3.55;;;1.05;;
29788;SDS011;64899;42.660;23.268;2022-11-20T00:38:46;4.35;;;1.33;;
29788;SDS011;64899;42.660;23.268;2022-11-20T00:41:13;3.35;;;1.10;;
29788;SDS011;64899;42.660;23.268;2022-11-20T00:43:40;3.38;;;1.50;;
29788;SDS011;64899;42.660;23.268;2022-11-20T00:46:07;1.85;;;1.15;;
29788;SDS011;64899;42.660;23.268;2022-11-20T00:48:34;4.57;;;1.30;;
29788;SDS011;64899;42.660;23.268;2022-11-20T00:50:59;4.10;;;1.30;;
29788;SDS011;64899;42.660;23.268;2022-11-20T00:53:25;4.18;;;1.30;;
29788;SDS011;64899;42.660;23.268;2022-11-20T00:55:57;2.78;;;1.20;;
29788;SDS011;64899;42.660;23.268;2022-11-20T01:00:50;4.10;;;1.13;;
29788;SDS011;64899;42.660;23.268;2022-11-20T01:03:16;2.65;;;1.15;;
29788;SDS011;64899;42.660;23.268;2022-11-20T01:05:42;7.60;;;1.23;;
29788;SDS011;64899;42.660;23.268;2022-11-20T01:08:08;4.38;;;1.83;;
29788;SDS011;64899;42.660;23.268;2022-11-20T01:10:33;5.22;;;2.00;;
29788;SDS011;64899;42.660;23.268;2022-11-20T01:12:59;2.53;;;1.13;;
29788;SDS011;64899;42.660;23.268;2022-11-20T01:15:42;4.50;;;1.38;;
29788;SDS011;64899;42.660;23.268;2022-11-20T01:18:08;2.70;;;0.93;;
29788;SDS011;64899;42.660;23.268;2022-11-20T01:20:34;2.53;;;1.02;;
29788;SDS011;64899;42.660;23.268;2022-11-20T01:23:01;3.47;;;1.38;;
29788;SDS011;64899;42.660;23.268;2022-11-20T01:25:27;2.85;;;0.98;;
29788;SDS011;64899;42.660;23.268;2022-11-20T01:27:52;4.22;;;1.00;;
29788;SDS011;64899;42.660;23.268;2022-11-20T01:30:17;3.60;;;1.30;;
29788;SDS011;64899;42.660;23.268;2022-11-20T01:32:43;2.70;;;0.85;;
29788;SDS011;64899;42.660;23.268;2022-11-20T01:35:09;3.47;;;1.25;;
29788;SDS011;64899;42.660;23.268;2022-11-20T01:37:35;3.92;;;1.10;;
29788;SDS011;64899;42.660;23.268;2022-11-20T01:40:00;5.32;;;1.10;;
29788;SDS011;64899;42.660;23.268;2022-11-20T01:42:26;3.25;;;1.10;;
29788;SDS011;64899;42.660;23.268;2022-11-20T01:48:07;3.33;;;1.10;;
29788;SDS011;64899;42.660;23.268;2022-11-20T01:50:33;4.32;;;1.00;;
29788;SDS011;64899;42.660;23.268;2022-11-20T01:53:00;2.33;;;1.10;;
29788;SDS011;64899;42.660;23.268;2022-11-20T01:55:31;1.50;;;1.10;;
29788;SDS011;64899;42.660;23.268;2022-11-20T01:57:59;3.42;;;0.90;;
29788;SDS011;64899;42.660;23.268;2022-11-20T02:00:25;2.05;;;1.10;;
29788;SDS011;64899;42.660;23.268;2022-11-20T02:02:52;3.17;;;1.10;;
29788;SDS011;64899;42.660;23.268;2022-11-20T02:05:27;2.50;;;1.10;;
29788;SDS011;64899;42.660;23.268;2022-11-20T02:08:03;1.77;;;1.10;;
29788;SDS011;64899;42.660;23.268;2022-11-20T02:10:30;2.58;;;0.90;;
29788;SDS011;64899;42.660;23.268;2022-11-20T02:12:56;2.13;;;1.10;;
29788;SDS011;64899;42.660;23.268;2022-11-20T02:15:41;2.70;;;0.90;;
29788;SDS011;64899;42.660;23.268;2022-11-20T02:18:07;2.60;;;1.05;;
29788;SDS011;64899;42.660;23.268;2022-11-20T02:20:33;1.77;;;0.77;;
29788;SDS011;64899;42.660;23.268;2022-11-20T02:23:06;2.05;;;1.13;;
29788;SDS011;64899;42.660;23.268;2022-11-20T02:25:34;2.60;;;0.98;;
29788;SDS011;64899;42.660;23.268;2022-11-20T02:28:02;4.75;;;1.13;;
29788;SDS011;64899;42.660;23.268;2022-11-20T02:30:27;3.42;;;1.00;;
29788;SDS011;64899;42.660;23.268;2022-11-20T02:32:53;1.77;;;1.00;;
29788;SDS011;64899;42.660;23.268;2022-11-20T02:37:43;1.60;;;1.20;;
29788;SDS011;64899;42.660;23.268;2022-11-20T02:40:10;7.43;;;1.20;;
29788;SDS011;64899;42.660;23.268;2022-11-20T02:42:36;4.05;;;1.38;;
29788;SDS011;64899;42.660;23.268;2022-11-20T02:45:02;3.28;;;1.05;;
29788;SDS011;64899;42.660;23.268;2022-11-20T02:47:31;3.80;;;1.10;;
29788;SDS011;64899;42.660;23.268;2022-11-20T02:49:57;1.17;;;0.85;;
29788;SDS011;64899;42.660;23.268;2022-11-20T02:52:23;3.03;;;1.10;;
29788;SDS011;64899;42.660;23.268;2022-11-20T02:54:49;3.03;;;1.10;;
29788;SDS011;64899;42.660;23.268;2022-11-20T02:57:14;6.85;;;1.27;;
29788;SDS011;64899;42.660;23.268;2022-11-20T02:59:40;4.18;;;1.25;;
29788;SDS011;64899;42.660;23.268;2022-11-20T03:02:05;3.05;;;1.20;;
29788;SDS011;64899;42.660;23.268;2022-11-20T03:04:31;5.43;;;1.40;;
29788;SDS011;64899;42.660;23.268;2022-11-20T03:06:56;4.30;;;1.48;;
29788;SDS011;64899;42.660;23.268;2022-11-20T03:09:21;4.10;;;1.23;;
29788;SDS011;64899;42.660;23.268;2022-11-20T03:11:47;4.28;;;1.20;;
29788;SDS011;64899;42.660;23.268;2022-11-20T03:14:12;5.13;;;1.92;;
29788;SDS011;64899;42.660;23.268;2022-11-20T03:16:38;2.85;;;1.40;;
29788;SDS011;64899;42.660;23.268;2022-11-20T03:19:03;3.95;;;1.30;;
29788;SDS011;64899;42.660;23.268;2022-11-20T03:21:29;5.50;;;1.58;;
29788;SDS011;64899;42.660;23.268;2022-11-20T03:23:54;7.07;;;1.77;;
29788;SDS011;64899;42.660;23.268;2022-11-20T03:26:21;4.43;;;1.30;;
29788;SDS011;64899;42.660;23.268;2022-11-20T03:28:52;4.55;;;1.20;;
29788;SDS011;64899;42.660;23.268;2022-11-20T03:31:20;3.88;;;1.27;;
29788;SDS011;64899;42.660;23.268;2022-11-20T03:33:46;4.40;;;1.30;;
29788;SDS011;64899;42.660;23.268;2022-11-20T03:36:13;1.55;;;1.10;;
29788;SDS011;64899;42.660;23.268;2022-11-20T03:38:39;4.30;;;1.40;;
29788;SDS011;64899;42.660;23.268;2022-11-20T03:41:07;3.00;;;1.42;;
29788;SDS011;64899;42.660;23.268;2022-11-20T03:43:34;4.00;;;0.98;;
29788;SDS011;64899;42.660;23.268;2022-11-20T03:46:00;1.88;;;1.30;;
29788;SDS011;64899;42.660;23.268;2022-11-20T03:48:26;3.33;;;1.17;;
29788;SDS011;64899;42.660;23.268;2022-11-20T03:50:52;3.70;;;1.25;;
29788;SDS011;64899;42.660;23.268;2022-11-20T03:53:19;1.48;;;0.98;;
29788;SDS011;64899;42.660;23.268;2022-11-20T03:55:45;4.78;;;1.30;;
29788;SDS011;64899;42.660;23.268;2022-11-20T03:58:11;2.35;;;0.90;;
29788;SDS011;64899;42.660;23.268;2022-11-20T04:00:36;3.05;;;1.08;;
29788;SDS011;64899;42.660;23.268;2022-11-20T04:03:01;5.25;;;1.50;;
29788;SDS011;64899;42.660;23.268;2022-11-20T04:05:27;5.78;;;1.50;;
29788;SDS011;64899;42.660;23.268;2022-11-20T04:07:53;3.92;;;1.40;;
29788;SDS011;64899;42.660;23.268;2022-11-20T04:10:18;2.75;;;1.48;;
29788;SDS011;64899;42.660;23.268;2022-11-20T04:12:44;3.90;;;1.75;;
29788;SDS011;64899;42.660;23.268;2022-11-20T04:15:09;5.40;;;1.52;;
29788;SDS011;64899;42.660;23.268;2022-11-20T04:17:35;5.25;;;1.33;;
29788;SDS011;64899;42.660;23.268;2022-11-20T04:20:00;3.85;;;1.20;;
29788;SDS011;64899;42.660;23.268;2022-11-20T04:22:26;3.47;;;1.05;;
29788;SDS011;64899;42.660;23.268;2022-11-20T04:24:51;3.78;;;1.30;;
29788;SDS011;64899;42.660;23.268;2022-11-20T04:27:17;3.40;;;1.23;;
29788;SDS011;64899;42.660;23.268;2022-11-20T04:29:43;1.45;;;0.90;;
29788;SDS011;64899;42.660;23.268;2022-11-20T04:32:08;3.45;;;1.75;;
29788;SDS011;64899;42.660;23.268;2022-11-20T04:34:33;3.00;;;1.27;;
29788;SDS011;64899;42.660;23.268;2022-11-20T04:36:59;3.40;;;1.23;;
29788;SDS011;64899;42.660;23.268;2022-11-20T04:39:25;3.20;;;1.65;;
29788;SDS011;64899;42.660;23.268;2022-11-20T04:41:50;4.40;;;1.23;;
29788;SDS011;64899;42.660;23.268;2022-11-20T04:44:38;4.13;;;1.05;;
29788;SDS011;64899;42.660;23.268;2022-11-20T04:47:04;4.38;;;1.52;;
29788;SDS011;64899;42.660;23.268;2022-11-20T04:49:29;3.97;;;1.13;;
29788;SDS011;64899;42.660;23.268;2022-11-20T04:51:56;3.20;;;1.00;;
29788;SDS011;64899;42.660;23.268;2022-11-20T04:54:22;4.72;;;1.42;;
29788;SDS011;64899;42.660;23.268;2022-11-20T04:56:47;3.97;;;0.93;;
29788;SDS011;64899;42.660;23.268;2022-11-20T04:59:13;2.90;;;0.90;;
29788;SDS011;64899;42.660;23.268;2022-11-20T05:01:38;4.43;;;1.38;;
29788;SDS011;64899;42.660;23.268;2022-11-20T05:04:04;1.80;;;0.88;;
29788;SDS011;64899;42.660;23.268;2022-11-20T05:06:30;1.15;;;0.90;;
29788;SDS011;64899;42.660;23.268;2022-11-20T05:08:56;3.45;;;1.30;;
29788;SDS011;64899;42.660;23.268;2022-11-20T05:11:21;1.60;;;1.00;;
29788;SDS011;64899;42.660;23.268;2022-11-20T05:13:47;1.23;;;0.85;;
29788;SDS011;64899;42.660;23.268;2022-11-20T05:16:14;2.08;;;0.90;;
29788;SDS011;64899;42.660;23.268;2022-11-20T05:18:41;2.53;;;1.13;;
29788;SDS011;64899;42.660;23.268;2022-11-20T05:21:07;3.42;;;1.15;;
29788;SDS011;64899;42.660;23.268;2022-11-20T05:23:33;2.10;;;1.27;;
29788;SDS011;64899;42.660;23.268;2022-11-20T05:25:59;3.17;;;1.00;;
29788;SDS011;64899;42.660;23.268;2022-11-20T05:28:25;2.75;;;1.15;;
29788;SDS011;64899;42.660;23.268;2022-11-20T05:30:51;4.40;;;0.98;;
29788;SDS011;64899;42.660;23.268;2022-11-20T05:33:17;3.00;;;1.27;;
29788;SDS011;64899;42.660;23.268;2022-11-20T05:35:43;1.50;;;0.88;;
29788;SDS011;64899;42.660;23.268;2022-11-20T05:38:08;2.92;;;1.17;;
29788;SDS011;64899;42.660;23.268;2022-11-20T05:40:34;3.75;;;1.02;;
29788;SDS011;64899;42.660;23.268;2022-11-20T05:42:59;7.38;;;1.20;;
29788;SDS011;64899;42.660;23.268;2022-11-20T05:45:25;1.92;;;1.00;;
29788;SDS011;64899;42.660;23.268;2022-11-20T05:47:51;4.18;;;1.30;;
29788;SDS011;64899;42.660;23.268;2022-11-20T05:50:16;1.30;;;1.00;;
29788;SDS011;64899;42.660;23.268;2022-11-20T05:52:42;8.18;;;1.05;;
29788;SDS011;64899;42.660;23.268;2022-11-20T05:55:07;4.95;;;1.20;;
29788;SDS011;64899;42.660;23.268;2022-11-20T05:57:33;5.32;;;1.20;;
29788;SDS011;64899;42.660;23.268;2022-11-20T05:59:58;4.45;;;1.20;;
29788;SDS011;64899;42.660;23.268;2022-11-20T06:02:24;0.90;;;0.75;;
29788;SDS011;64899;42.660;23.268;2022-11-20T06:04:49;2.17;;;1.10;;
29788;SDS011;64899;42.660;23.268;2022-11-20T06:07:15;5.45;;;1.33;;
29788;SDS011;64899;42.660;23.268;2022-11-20T06:09:40;4.45;;;0.80;;
29788;SDS011;64899;42.660;23.268;2022-11-20T06:12:05;3.70;;;1.23;;
29788;SDS011;64899;42.660;23.268;2022-11-20T06:14:31;5.10;;;1.27;;
29788;SDS011;64899;42.660;23.268;2022-11-20T06:16:57;5.10;;;1.13;;
29788;SDS011;64899;42.660;23.268;2022-11-20T06:19:23;5.85;;;1.17;;
29788;SDS011;64899;42.660;23.268;2022-11-20T06:21:48;4.30;;;1.20;;
29788;SDS011;64899;42.660;23.268;2022-11-20T06:24:14;3.20;;;1.02;;
29788;SDS011;64899;42.660;23.268;2022-11-20T06:26:40;3.78;;;1.10;;
29788;SDS011;64899;42.660;23.268;2022-11-20T06:29:06;3.80;;;0.80;;
29788;SDS011;64899;42.660;23.268;2022-11-20T06:31:31;6.97;;;1.00;;
29788;SDS011;64899;42.660;23.268;2022-11-20T06:34:02;2.83;;;1.13;;
29788;SDS011;64899;42.660;23.268;2022-11-20T06:36:29;4.13;;;0.82;;
29788;SDS011;64899;42.660;23.268;2022-11-20T06:38:54;7.30;;;1.02;;
29788;SDS011;64899;42.660;23.268;2022-11-20T06:41:20;4.07;;;1.05;;
29788;SDS011;64899;42.660;23.268;2022-11-20T06:43:46;2.20;;;1.02;;
29788;SDS011;64899;42.660;23.268;2022-11-20T06:46:12;4.20;;;1.45;;
29788;SDS011;64899;42.660;23.268;2022-11-20T06:48:39;3.75;;;0.70;;
29788;SDS011;64899;42.660;23.268;2022-11-20T06:51:05;3.65;;;1.10;;
29788;SDS011;64899;42.660;23.268;2022-11-20T06:53:31;3.75;;;0.90;;
29788;SDS011;64899;42.660;23.268;2022-11-20T06:55:57;2.53;;;1.02;;
29788;SDS011;64899;42.660;23.268;2022-11-20T06:58:28;2.17;;;1.00;;
29788;SDS011;64899;42.660;23.268;2022-11-20T07:00:58;2.33;;;1.00;;
29788;SDS011;64899;42.660;23.268;2022-11-20T07:03:24;3.10;;;0.90;;
29788;SDS011;64899;42.660;23.268;2022-11-20T07:05:49;1.95;;;0.93;;
29788;SDS011;64899;42.660;23.268;2022-11-20T07:08:15;4.03;;;0.82;;
29788;SDS011;64899;42.660;23.268;2022-11-20T07:10:40;4.68;;;1.30;;
29788;SDS011;64899;42.660;23.268;2022-11-20T07:13:05;2.03;;;0.90;;
29788;SDS011;64899;42.660;23.268;2022-11-20T07:15:32;4.75;;;1.40;;
29788;SDS011;64899;42.660;23.268;2022-11-20T07:18:00;3.22;;;1.10;;
29788;SDS011;64899;42.660;23.268;2022-11-20T07:20:26;4.25;;;1.17;;
29788;SDS011;64899;42.660;23.268;2022-11-20T07:22:55;7.97;;;1.20;;
29788;SDS011;64899;42.660;23.268;2022-11-20T07:25:21;4.32;;;1.30;;
29788;SDS011;64899;42.660;23.268;2022-11-20T07:27:47;8.43;;;1.30;;
29788;SDS011;64899;42.660;23.268;2022-11-20T07:30:13;6.38;;;1.50;;
29788;SDS011;64899;42.660;23.268;2022-11-20T07:32:39;2.95;;;1.13;;
29788;SDS011;64899;42.660;23.268;2022-11-20T07:35:04;4.22;;;1.23;;
29788;SDS011;64899;42.660;23.268;2022-11-20T07:37:30;3.78;;;1.30;;
29788;SDS011;64899;42.660;23.268;2022-11-20T07:39:59;6.20;;;1.40;;
29788;SDS011;64899;42.660;23.268;2022-11-20T07:42:24;2.03;;;1.05;;
29788;SDS011;64899;42.660;23.268;2022-11-20T07:44:49;5.05;;;1.33;;
29788;SDS011;64899;42.660;23.268;2022-11-20T07:47:15;4.20;;;1.38;;
29788;SDS011;64899;42.660;23.268;2022-11-20T07:49:40;6.07;;;1.20;;
29788;SDS011;64899;42.660;23.268;2022-11-20T07:52:06;2.08;;;0.82;;
29788;SDS011;64899;42.660;23.268;2022-11-20T07:54:31;6.47;;;1.60;;
29788;SDS011;64899;42.660;23.268;2022-11-20T07:56:56;6.28;;;1.00;;
29788;SDS011;64899;42.660;23.268;2022-11-20T07:59:22;4.22;;;1.33;;
29788;SDS011;64899;42.660;23.268;2022-11-20T08:01:47;4.57;;;1.67;;
29788;SDS011;64899;42.660;23.268;2022-11-20T08:04:12;6.22;;;1.45;;
29788;SDS011;64899;42.660;23.268;2022-11-20T08:06:40;5.00;;;1.40;;
29788;SDS011;64899;42.660;23.268;2022-11-20T08:09:05;7.80;;;1.30;;
29788;SDS011;64899;42.660;23.268;2022-11-20T08:11:30;3.33;;;1.58;;
29788;SDS011;64899;42.660;23.268;2022-11-20T08:14:14;6.97;;;1.48;;
29788;SDS011;64899;42.660;23.268;2022-11-20T08:16:44;6.35;;;1.85;;
29788;SDS011;64899;42.660;23.268;2022-11-20T08:19:11;7.72;;;1.83;;
29788;SDS011;64899;42.660;23.268;2022-11-20T08:21:40;4.47;;;1.67;;
29788;SDS011;64899;42.660;23.268;2022-11-20T08:24:06;6.57;;;1.80;;
29788;SDS011;64899;42.660;23.268;2022-11-20T08:26:34;8.95;;;2.90;;
29788;SDS011;64899;42.660;23.268;2022-11-20T08:29:00;4.72;;;1.48;;
29788;SDS011;64899;42.660;23.268;2022-11-20T08:31:26;7.78;;;1.90;;
29788;SDS011;64899;42.660;23.268;2022-11-20T08:33:52;11.43;;;1.90;;
29788;SDS011;64899;42.660;23.268;2022-11-20T08:36:18;5.82;;;1.52;;
29788;SDS011;64899;42.660;23.268;2022-11-20T08:38:47;5.10;;;1.08;;
29788;SDS011;64899;42.660;23.268;2022-11-20T08:41:16;7.70;;;1.75;;
29788;SDS011;64899;42.660;23.268;2022-11-20T08:43:58;6.10;;;1.45;;
29788;SDS011;64899;42.660;23.268;2022-11-20T08:46:25;5.88;;;1.40;;
29788;SDS011;64899;42.660;23.268;2022-11-20T08:48:53;4.82;;;1.45;;
29788;SDS011;64899;42.660;23.268;2022-11-20T08:51:19;8.85;;;1.63;;
29788;SDS011;64899;42.660;23.268;2022-11-20T08:53:45;7.90;;;2.20;;
29788;SDS011;64899;42.660;23.268;2022-11-20T08:56:11;8.32;;;2.10;;
29788;SDS011;64899;42.660;23.268;2022-11-20T08:58:37;5.50;;;2.25;;
29788;SDS011;64899;42.660;23.268;2022-11-20T09:01:03;9.25;;;2.58;;
29788;SDS011;64899;42.660;23.268;2022-11-20T09:03:29;3.95;;;2.35;;
29788;SDS011;64899;42.660;23.268;2022-11-20T09:05:58;4.95;;;2.20;;
29788;SDS011;64899;42.660;23.268;2022-11-20T09:08:27;7.70;;;2.88;;
29788;SDS011;64899;42.660;23.268;2022-11-20T09:10:53;8.77;;;2.78;;
29788;SDS011;64899;42.660;23.268;2022-11-20T09:13:20;5.13;;;2.53;;
29788;SDS011;64899;42.660;23.268;2022-11-20T09:15:46;6.13;;;2.03;;
29788;SDS011;64899;42.660;23.268;2022-11-20T09:18:11;5.43;;;2.13;;
29788;SDS011;64899;42.660;23.268;2022-11-20T09:20:36;7.45;;;3.00;;
29788;SDS011;64899;42.660;23.268;2022-11-20T09:23:02;9.05;;;1.65;;
29788;SDS011;64899;42.660;23.268;2022-11-20T09:25:28;4.07;;;1.15;;
29788;SDS011;64899;42.660;23.268;2022-11-20T09:27:57;2.38;;;1.13;;
29788;SDS011;64899;42.660;23.268;2022-11-20T09:30:23;4.70;;;1.40;;
29788;SDS011;64899;42.660;23.268;2022-11-20T09:32:48;4.32;;;1.63;;
29788;SDS011;64899;42.660;23.268;2022-11-20T09:35:14;1.85;;;1.10;;
29788;SDS011;64899;42.660;23.268;2022-11-20T09:37:39;5.55;;;1.45;;
29788;SDS011;64899;42.660;23.268;2022-11-20T09:40:05;5.57;;;1.42;;
29788;SDS011;64899;42.660;23.268;2022-11-20T09:42:37;5.32;;;1.50;;
29788;SDS011;64899;42.660;23.268;2022-11-20T09:54:29;7.90;;;1.90;;
29788;SDS011;64899;42.660;23.268;2022-11-20T09:56:58;4.32;;;1.83;;
29788;SDS011;64899;42.660;23.268;2022-11-20T10:01:56;8.27;;;2.53;;
29788;SDS011;64899;42.660;23.268;2022-11-20T10:04:23;5.45;;;2.10;;
29788;SDS011;64899;42.660;23.268;2022-11-20T10:09:22;5.07;;;1.83;;
29788;SDS011;64899;42.660;23.268;2022-11-20T10:11:56;7.05;;;2.42;;
29788;SDS011;64899;42.660;23.268;2022-11-20T10:30:43;6.38;;;2.58;;
29788;SDS011;64899;42.660;23.268;2022-11-20T10:33:17;6.95;;;2.88;;
29788;SDS011;64899;42.660;23.268;2022-11-20T10:36:33;5.50;;;2.20;;
29788;SDS011;64899;42.660;23.268;2022-11-20T10:38:57;4.53;;;2.15;;
29788;SDS011;64899;42.660;23.268;2022-11-20T10:41:56;8.70;;;3.17;;
29788;SDS011;64899;42.660;23.268;2022-11-20T10:44:24;5.47;;;2.38;;
29788;SDS011;64899;42.660;23.268;2022-11-20T10:47:14;12.55;;;2.90;;
29788;SDS011;64899;42.660;23.268;2022-11-20T10:49:40;6.10;;;3.08;;
29788;SDS011;64899;42.660;23.268;2022-11-20T11:01:05;14.82;;;4.57;;
29788;SDS011;64899;42.660;23.268;2022-11-20T11:03:36;13.57;;;4.60;;
29788;SDS011;64899;42.660;23.268;2022-11-20T11:08:28;8.90;;;2.50;;
29788;SDS011;64899;42.660;23.268;2022-11-20T11:11:00;10.18;;;3.10;;
29788;SDS011;64899;42.660;23.268;2022-11-20T11:13:30;3.85;;;1.60;;
29788;SDS011;64899;42.660;23.268;2022-11-20T11:15:56;4.95;;;1.55;;
29788;SDS011;64899;42.660;23.268;2022-11-20T11:18:32;3.90;;;1.20;;
29788;SDS011;64899;42.660;23.268;2022-11-20T11:20:59;3.00;;;1.10;;
29788;SDS011;64899;42.660;23.268;2022-11-20T11:26:02;4.63;;;1.50;;
29788;SDS011;64899;42.660;23.268;2022-11-20T11:28:30;3.55;;;1.08;;
29788;SDS011;64899;42.660;23.268;2022-11-20T11:30:56;3.80;;;0.75;;
29788;SDS011;64899;42.660;23.268;2022-11-20T11:33:23;3.10;;;0.90;;
29788;SDS011;64899;42.660;23.268;2022-11-20T11:35:54;3.55;;;0.70;;
29788;SDS011;64899;42.660;23.268;2022-11-20T11:38:28;1.83;;;0.68;;
29788;SDS011;64899;42.660;23.268;2022-11-20T11:40:56;3.67;;;0.98;;
29788;SDS011;64899;42.660;23.268;2022-11-20T11:43:25;6.68;;;1.27;;
29788;SDS011;64899;42.660;23.268;2022-11-20T11:49:00;5.00;;;1.15;;
29788;SDS011;64899;42.660;23.268;2022-11-20T11:51:39;4.03;;;1.27;;
29788;SDS011;64899;42.660;23.268;2022-11-20T11:54:23;8.65;;;1.30;;
29788;SDS011;64899;42.660;23.268;2022-11-20T11:56:51;3.90;;;1.48;;
29788;SDS011;64899;42.660;23.268;2022-11-20T11:59:22;5.50;;;1.50;;
29788;SDS011;64899;42.660;23.268;2022-11-20T12:01:59;6.50;;;1.73;;
29788;SDS011;64899;42.660;23.268;2022-11-20T12:07:36;5.68;;;1.10;;
29788;SDS011;64899;42.660;23.268;2022-11-20T12:09:58;2.63;;;0.93;;
29788;SDS011;64899;42.660;23.268;2022-11-20T12:12:31;7.18;;;1.38;;
29788;SDS011;64899;42.660;23.268;2022-11-20T12:15:00;4.55;;;1.00;;
29788;SDS011;64899;42.660;23.268;2022-11-20T12:17:26;3.58;;;1.10;;
29788;SDS011;64899;42.660;23.268;2022-11-20T12:19:51;5.45;;;1.50;;
29788;SDS011;64899;42.660;23.268;2022-11-20T12:28:00;7.35;;;1.80;;
29788;SDS011;64899;42.660;23.268;2022-11-20T12:30:30;6.13;;;1.42;;
29788;SDS011;64899;42.660;23.268;2022-11-20T12:41:55;4.45;;;1.50;;
29788;SDS011;64899;42.660;23.268;2022-11-20T12:55:25;8.25;;;1.70;;
29788;SDS011;64899;42.660;23.268;2022-11-20T13:00:23;6.07;;;1.20;;
29788;SDS011;64899;42.660;23.268;2022-11-20T13:05:19;5.03;;;2.20;;
29788;SDS011;64899;42.660;23.268;2022-11-20T13:07:47;5.60;;;2.67;;
29788;SDS011;64899;42.660;23.268;2022-11-20T13:10:21;7.20;;;2.70;;
29788;SDS011;64899;42.660;23.268;2022-11-20T13:13:01;7.10;;;2.70;;
29788;SDS011;64899;42.660;23.268;2022-11-20T13:15:37;8.25;;;2.97;;
29788;SDS011;64899;42.660;23.268;2022-11-20T13:18:10;7.93;;;2.92;;
29788;SDS011;64899;42.660;23.268;2022-11-20T13:20:36;5.93;;;2.70;;
29788;SDS011;64899;42.660;23.268;2022-11-20T13:23:07;9.57;;;3.38;;
29788;SDS011;64899;42.660;23.268;2022-11-20T13:25:36;9.05;;;3.50;;
29788;SDS011;64899;42.660;23.268;2022-11-20T13:28:04;6.68;;;3.20;;
29788;SDS011;64899;42.660;23.268;2022-11-20T13:30:50;7.20;;;2.80;;
29788;SDS011;64899;42.660;23.268;2022-11-20T13:38:48;7.57;;;3.60;;
29788;SDS011;64899;42.660;23.268;2022-11-20T13:41:31;6.88;;;4.18;;
29788;SDS011;64899;42.660;23.268;2022-11-20T13:44:13;10.65;;;3.63;;
29788;SDS011;64899;42.660;23.268;2022-11-20T13:46:46;12.15;;;3.83;;
29788;SDS011;64899;42.660;23.268;2022-11-20T13:49:16;9.50;;;3.78;;
29788;SDS011;64899;42.660;23.268;2022-11-20T13:51:43;10.05;;;3.92;;
29788;SDS011;64899;42.660;23.268;2022-11-20T13:59:48;8.63;;;3.45;;
29788;SDS011;64899;42.660;23.268;2022-11-20T14:02:15;10.93;;;3.65;;
29788;SDS011;64899;42.660;23.268;2022-11-20T14:04:43;7.20;;;3.20;;
29788;SDS011;64899;42.660;23.268;2022-11-20T14:07:10;7.25;;;3.40;;
29788;SDS011;64899;42.660;23.268;2022-11-20T14:09:35;7.05;;;3.75;;
29788;SDS011;64899;42.660;23.268;2022-11-20T14:12:01;9.00;;;4.10;;
29788;SDS011;64899;42.660;23.268;2022-11-20T14:14:29;6.70;;;3.88;;
29788;SDS011;64899;42.660;23.268;2022-11-20T14:17:08;11.13;;;3.90;;
29788;SDS011;64899;42.660;23.268;2022-11-20T14:19:40;10.43;;;3.85;;
29788;SDS011;64899;42.660;23.268;2022-11-20T14:24:33;6.45;;;3.58;;
29788;SDS011;64899;42.660;23.268;2022-11-20T14:26:58;6.53;;;2.17;;
29788;SDS011;64899;42.660;23.268;2022-11-20T14:29:34;9.30;;;2.88;;
29788;SDS011;64899;42.660;23.268;2022-11-20T14:32:01;8.52;;;2.70;;
29788;SDS011;64899;42.660;23.268;2022-11-20T14:34:28;9.10;;;2.95;;
29788;SDS011;64899;42.660;23.268;2022-11-20T14:37:01;5.20;;;2.40;;
29788;SDS011;64899;42.660;23.268;2022-11-20T14:39:32;3.72;;;2.33;;
29788;SDS011;64899;42.660;23.268;2022-11-20T14:41:59;5.57;;;1.88;;
29788;SDS011;64899;42.660;23.268;2022-11-20T14:44:29;6.05;;;2.78;;
29788;SDS011;64899;42.660;23.268;2022-11-20T14:46:56;3.40;;;2.00;;
29788;SDS011;64899;42.660;23.268;2022-11-20T14:49:22;3.53;;;1.95;;
29788;SDS011;64899;42.660;23.268;2022-11-20T14:51:57;5.63;;;2.05;;
29788;SDS011;64899;42.660;23.268;2022-11-20T14:54:24;4.80;;;2.72;;
29788;SDS011;64899;42.660;23.268;2022-11-20T14:56:57;5.32;;;1.98;;
29788;SDS011;64899;42.660;23.268;2022-11-20T14:59:24;6.72;;;2.42;;
29788;SDS011;64899;42.660;23.268;2022-11-20T15:01:54;7.57;;;2.30;;
29788;SDS011;64899;42.660;23.268;2022-11-20T15:04:24;4.45;;;2.17;;
29788;SDS011;64899;42.660;23.268;2022-11-20T15:06:51;2.78;;;1.63;;
29788;SDS011;64899;42.660;23.268;2022-11-20T15:09:17;2.70;;;1.80;;
29788;SDS011;64899;42.660;23.268;2022-11-20T15:11:52;2.65;;;2.20;;
29788;SDS011;64899;42.660;23.268;2022-11-20T15:14:17;5.18;;;2.47;;
29788;SDS011;64899;42.660;23.268;2022-11-20T15:16:43;4.43;;;2.20;;
29788;SDS011;64899;42.660;23.268;2022-11-20T15:19:13;6.80;;;2.88;;
29788;SDS011;64899;42.660;23.268;2022-11-20T15:21:42;5.03;;;2.80;;
29788;SDS011;64899;42.660;23.268;2022-11-20T15:24:08;7.78;;;3.17;;
29788;SDS011;64899;42.660;23.268;2022-11-20T15:26:34;8.50;;;3.85;;
29788;SDS011;64899;42.660;23.268;2022-11-20T15:28:59;9.13;;;3.80;;
29788;SDS011;64899;42.660;23.268;2022-11-20T15:31:25;6.30;;;3.53;;
29788;SDS011;64899;42.660;23.268;2022-11-20T15:33:50;12.57;;;6.30;;
29788;SDS011;64899;42.660;23.268;2022-11-20T15:36:16;12.40;;;4.53;;
29788;SDS011;64899;42.660;23.268;2022-11-20T15:38:41;6.60;;;3.60;;
29788;SDS011;64899;42.660;23.268;2022-11-20T15:41:07;9.55;;;5.05;;
29788;SDS011;64899;42.660;23.268;2022-11-20T15:43:33;9.63;;;3.75;;
29788;SDS011;64899;42.660;23.268;2022-11-20T15:46:02;6.90;;;3.67;;
29788;SDS011;64899;42.660;23.268;2022-11-20T15:48:29;6.97;;;3.47;;
29788;SDS011;64899;42.660;23.268;2022-11-20T15:51:04;5.88;;;3.30;;
29788;SDS011;64899;42.660;23.268;2022-11-20T15:53:32;6.07;;;3.38;;
29788;SDS011;64899;42.660;23.268;2022-11-20T15:55:58;5.68;;;3.35;;
29788;SDS011;64899;42.660;23.268;2022-11-20T15:58:23;6.07;;;3.20;;
29788;SDS011;64899;42.660;23.268;2022-11-20T16:00:49;5.07;;;2.60;;
29788;SDS011;64899;42.660;23.268;2022-11-20T16:03:15;7.68;;;3.28;;
29788;SDS011;64899;42.660;23.268;2022-11-20T16:05:41;6.40;;;2.85;;
29788;SDS011;64899;42.660;23.268;2022-11-20T16:08:07;4.15;;;2.63;;
29788;SDS011;64899;42.660;23.268;2022-11-20T16:10:32;6.60;;;2.85;;
29788;SDS011;64899;42.660;23.268;2022-11-20T16:12:58;5.93;;;2.50;;
29788;SDS011;64899;42.660;23.268;2022-11-20T16:15:43;4.97;;;3.30;;
29788;SDS011;64899;42.660;23.268;2022-11-20T16:18:10;5.80;;;2.90;;
29788;SDS011;64899;42.660;23.268;2022-11-20T16:20:36;5.70;;;2.88;;